Terminal Aerodrome Forecast
Issued by NWS Grand Junction, CO

Home | Current Version | Previous Version | Text Only | Print | Product List | Glossary On
Versions: 1 2 3 4 5 6 7 8 9 10 11 12 13 14 15 16
000
FTUS45 KGJT 191739
TAFGJT
TAF
KGJT 191739Z 1918/2018 13007G15KT P6SM BKN200
     FM200100 17014G24KT P6SM BKN110 OVC120
     FM200500 18009KT P6SM BKN100 OVC110
     FM200800 15006KT P6SM BKN110
     FM201400 24005KT P6SM VCSH BKN070 BKN090=

USA.gov is the U.S. government's official web portal to all federal, state and local government web resources and services.